Time;durP1;ratioP1;P1;durP2;ratioP2;P2;SDS_P1;SDS_P2;PMS_P1;PMS_P2;Temp;Humidity;BMP_temperature;BMP_pressure;BME280_temperature;BME280_humidity;BME280_pressure;Samples;Min_cycle;Max_cycle;Signal;HPM_P1;HPM_P2
2023/01/28 00:00:12;;;;;;;4.65;3.95;;;;;;;2.59;100.00;101265.88;5058192;28;20219;-80
2023/01/28 00:02:38;;;;;;;6.30;4.25;;;;;;;2.64;100.00;101269.41;5057627;28;20185;-79
2023/01/28 00:05:06;;;;;;;5.60;4.50;;;;;;;2.56;100.00;101260.56;5057498;28;20278;-79
2023/01/28 00:07:32;;;;;;;6.13;4.22;;;;;;;2.48;100.00;101260.53;5056899;28;20252;-80
2023/01/28 00:09:59;;;;;;;5.97;4.00;;;;;;;2.39;100.00;101255.19;5032405;28;20200;-81
2023/01/28 00:12:26;;;;;;;4.72;3.90;;;;;;;2.41;100.00;101256.09;5047968;28;20675;-82
2023/01/28 00:14:53;;;;;;;6.22;4.22;;;;;;;2.28;100.00;101263.19;5046288;28;20247;-81
2023/01/28 00:17:20;;;;;;;5.38;4.13;;;;;;;2.28;100.00;101259.59;5046392;28;20206;-80
2023/01/28 00:19:46;;;;;;;5.95;3.78;;;;;;;2.23;100.00;101253.41;5046719;28;20200;-80
2023/01/28 00:22:14;;;;;;;8.30;4.30;;;;;;;2.22;100.00;101263.16;5046303;28;20211;-80
2023/01/28 00:24:40;;;;;;;10.45;4.60;;;;;;;2.26;100.00;101262.28;5045988;28;20254;-79
2023/01/28 00:27:07;;;;;;;6.55;4.65;;;;;;;2.23;100.00;101253.41;5028441;28;20266;-80
2023/01/28 00:29:34;;;;;;;8.48;4.15;;;;;;;2.30;100.00;101250.75;5044933;28;20206;-80
2023/01/28 00:32:02;;;;;;;4.55;4.03;;;;;;;2.26;100.00;101254.31;5050483;28;20213;-82
2023/01/28 00:34:28;;;;;;;6.57;4.22;;;;;;;2.27;100.00;101263.16;5052997;28;20219;-78
2023/01/28 00:36:57;;;;;;;5.78;4.10;;;;;;;2.37;100.00;101267.59;5056596;28;20234;-80
2023/01/28 00:39:24;;;;;;;5.45;4.20;;;;;;;2.35;100.00;101263.16;5056098;28;20231;-80
2023/01/28 00:41:51;;;;;;;6.45;4.50;;;;;;;2.46;100.00;101264.06;5056701;28;20198;-79
2023/01/28 00:44:17;;;;;;;5.50;4.20;;;;;;;2.48;100.00;101270.28;5054723;28;20200;-79
2023/01/28 00:46:44;;;;;;;5.45;4.10;;;;;;;2.55;100.00;101260.53;5054018;28;20238;-79
2023/01/28 00:49:12;;;;;;;6.18;4.20;;;;;;;2.59;100.00;101263.22;5050447;28;20223;-79
2023/01/28 00:51:38;;;;;;;6.57;4.00;;;;;;;2.65;100.00;101267.66;5049138;28;20269;-82
2023/01/28 00:54:05;;;;;;;5.82;4.35;;;;;;;2.59;100.00;101271.19;5049487;28;20205;-79
2023/01/28 00:56:32;;;;;;;5.47;4.20;;;;;;;2.60;100.00;101274.72;5050022;28;20209;-78
2023/01/28 00:58:59;;;;;;;5.95;3.95;;;;;;;2.57;100.00;101269.41;5049246;28;20207;-79
2023/01/28 01:01:27;;;;;;;5.25;4.75;;;;;;;2.55;100.00;101261.41;5052138;28;20268;-78
2023/01/28 01:04:01;;;;;;;5.50;4.20;;;;;;;2.59;100.00;101279.16;5054826;28;20269;-79
2023/01/28 01:06:30;;;;;;;4.90;4.00;;;;;;;2.61;100.00;101264.09;5046698;28;20208;-78
2023/01/28 01:08:57;;;;;;;6.85;4.25;;;;;;;2.68;100.00;101265.88;5043124;28;20290;-80
2023/01/28 01:11:23;;;;;;;5.20;4.50;;;;;;;2.65;100.00;101271.19;5045763;28;20227;-80
2023/01/28 01:13:51;;;;;;;10.32;7.43;;;;;;;2.62;100.00;101267.63;5051344;28;20207;-77
2023/01/28 01:16:18;;;;;;;7.05;4.70;;;;;;;2.66;100.00;101272.09;5049698;28;20226;-77
2023/01/28 01:18:44;;;;;;;6.25;3.92;;;;;;;2.62;100.00;101279.19;5050168;28;20271;-79
2023/01/28 01:21:16;;;;;;;4.90;4.13;;;;;;;2.63;100.00;101272.97;5049174;28;20268;-79
2023/01/28 01:23:45;;;;;;;4.57;4.05;;;;;;;2.71;100.00;101279.19;5050207;28;20220;-79
2023/01/28 01:26:12;;;;;;;4.80;3.70;;;;;;;2.69;100.00;101274.72;5050579;28;20227;-79
2023/01/28 01:28:38;;;;;;;6.10;4.20;;;;;;;2.68;100.00;101267.66;5051955;28;20211;-79
2023/01/28 01:31:07;;;;;;;5.65;4.45;;;;;;;2.67;100.00;101274.75;5052472;28;20199;-79
2023/01/28 01:33:34;;;;;;;4.97;4.28;;;;;;;2.76;100.00;101280.94;5053665;28;20203;-79
2023/01/28 01:36:01;;;;;;;6.15;3.78;;;;;;;2.75;100.00;101281.84;5052904;28;20236;-80
2023/01/28 01:38:28;;;;;;;5.32;4.20;;;;;;;2.74;100.00;101283.63;5052859;28;20203;-80
2023/01/28 01:40:58;;;;;;;5.70;4.07;;;;;;;2.67;100.00;101287.19;5050319;28;20205;-79
2023/01/28 01:43:26;;;;;;;4.78;3.75;;;;;;;2.69;100.00;101291.59;5049672;28;20204;-79
2023/01/28 01:45:57;;;;;;;5.43;4.20;;;;;;;2.71;100.00;101288.94;5049774;28;20323;-79
2023/01/28 01:48:29;;;;;;;4.78;3.70;;;;;;;2.74;100.00;101290.69;5052049;28;20283;-79
2023/01/28 01:51:01;;;;;;;5.38;4.15;;;;;;;2.77;100.00;101290.72;5053685;28;20182;-79
2023/01/28 01:53:29;;;;;;;7.70;4.32;;;;;;;2.72;100.00;101290.72;5058677;28;20223;-81
2023/01/28 01:56:00;;;;;;;4.75;4.20;;;;;;;2.70;100.00;101288.03;5079100;22;20662;-76
2023/01/28 01:58:31;;;;;;;7.15;4.20;;;;;;;2.70;100.00;101298.69;5057704;28;20294;-75
2023/01/28 02:00:58;;;;;;;5.57;4.22;;;;;;;2.76;100.00;101296.91;5057853;28;20203;-75
2023/01/28 02:03:30;;;;;;;5.80;4.47;;;;;;;2.78;100.00;101296.06;5058205;28;20629;-75
2023/01/28 02:05:58;;;;;;;8.35;4.28;;;;;;;2.88;100.00;101307.59;5057817;28;20666;-75
2023/01/28 02:08:26;;;;;;;4.07;3.55;;;;;;;2.81;100.00;101308.47;5057482;28;20582;-76
2023/01/28 02:10:56;;;;;;;5.88;4.10;;;;;;;2.76;100.00;101310.22;5058577;28;20226;-76
2023/01/28 02:13:28;;;;;;;5.78;4.60;;;;;;;2.76;100.00;101307.56;5057573;28;20642;-75
2023/01/28 02:15:58;;;;;;;5.32;3.65;;;;;;;2.72;100.00;101296.91;5057822;28;20639;-74
2023/01/28 02:18:25;;;;;;;4.80;3.50;;;;;;;2.75;100.00;101300.47;5057661;28;20203;-74
2023/01/28 02:21:18;;;;;;;6.75;4.05;;;;;;;2.66;100.00;101298.69;5071549;28;20642;-75
2023/01/28 02:23:57;;;;;;;5.82;4.07;;;;;;;2.70;100.00;101298.69;5063074;28;20191;-76
2023/01/28 02:26:47;;;;;;;4.68;3.75;;;;;;;2.68;100.00;101295.13;5058271;28;20232;-76
2023/01/28 02:29:22;;;;;;;5.47;4.82;;;;;;;2.56;100.00;101300.44;5057972;28;20183;-75
2023/01/28 02:31:53;;;;;;;5.85;4.00;;;;;;;2.55;100.00;101293.34;5057052;28;20679;-75
2023/01/28 02:34:36;;;;;;;4.50;3.92;;;;;;;2.64;100.00;101298.66;5068097;28;20298;-76
2023/01/28 02:37:09;;;;;;;6.47;4.20;;;;;;;2.59;100.00;101303.09;5070782;28;20308;-76
2023/01/28 02:39:40;;;;;;;5.93;4.03;;;;;;;2.58;100.00;101309.31;5061005;28;20247;-76
2023/01/28 02:42:10;;;;;;;6.88;4.68;;;;;;;2.59;100.00;101303.09;5059419;28;20652;-76
2023/01/28 02:44:38;;;;;;;6.45;4.47;;;;;;;2.61;100.00;101311.97;5059352;28;20226;-76
2023/01/28 02:49:56;;;;;;;6.13;4.47;;;;;;;2.63;100.00;101304.88;5058452;28;20575;-75
2023/01/28 02:55:29;;;;;;;5.72;4.45;;;;;;;2.63;100.00;101312.88;5057336;28;20658;-75
2023/01/28 02:58:06;;;;;;;5.20;4.70;;;;;;;2.68;100.00;101313.75;5055664;28;20731;-75
2023/01/28 03:00:45;;;;;;;4.65;4.15;;;;;;;2.62;100.00;101316.44;5055963;28;20191;-75
2023/01/28 03:03:18;;;;;;;5.05;4.18;;;;;;;2.64;100.00;101314.63;5056160;28;20199;-75
2023/01/28 03:06:05;;;;;;;5.25;4.57;;;;;;;2.66;100.00;101328.81;5056551;28;20747;-76
2023/01/28 03:39:16;;;;;;;6.40;4.60;;;;;;;2.48;100.00;101347.41;5054501;28;20276;-75
2023/01/28 03:41:43;;;;;;;8.23;5.22;;;;;;;2.52;100.00;101335.00;5055446;28;20684;-75
2023/01/28 03:46:53;;;;;;;5.82;4.13;;;;;;;2.61;100.00;101351.88;5056249;28;20259;-75
2023/01/28 03:49:21;;;;;;;6.72;4.40;;;;;;;2.54;100.00;101355.41;5054129;28;20226;-76
2023/01/28 03:51:48;;;;;;;7.88;4.50;;;;;;;2.64;100.00;101356.31;5056062;28;20550;-76
2023/01/28 03:54:14;;;;;;;5.78;4.90;;;;;;;2.60;100.00;101355.44;5055704;28;20204;-76
2023/01/28 03:56:41;;;;;;;5.72;5.15;;;;;;;2.55;100.00;101367.81;5055525;28;20231;-76
2023/01/28 03:59:08;;;;;;;5.95;4.07;;;;;;;2.58;100.00;101354.53;5055457;28;20203;-75
2023/01/28 04:01:34;;;;;;;6.40;4.70;;;;;;;2.56;100.00;101363.41;5055659;28;20213;-75
2023/01/28 04:04:01;;;;;;;8.02;4.70;;;;;;;2.57;100.00;101349.19;5055898;28;20200;-76
2023/01/28 04:06:29;;;;;;;5.90;3.95;;;;;;;2.56;100.00;101356.28;5056745;28;20235;-74
2023/01/28 04:08:58;;;;;;;7.70;5.05;;;;;;;2.56;100.00;101361.63;5056063;28;20586;-75
2023/01/28 04:11:25;;;;;;;6.70;4.03;;;;;;;2.54;100.00;101352.75;5057870;28;20268;-75
2023/01/28 04:13:52;;;;;;;8.80;5.03;;;;;;;2.48;100.00;101361.56;5057524;28;20211;-75
2023/01/28 04:16:20;;;;;;;5.22;4.18;;;;;;;2.49;100.00;101358.06;5059368;28;20585;-76
2023/01/28 04:18:46;;;;;;;5.68;4.20;;;;;;;2.44;100.00;101364.22;5061090;28;20235;-75
2023/01/28 04:21:13;;;;;;;5.95;4.57;;;;;;;2.52;100.00;101361.59;5057976;28;20214;-74
2023/01/28 04:23:41;;;;;;;6.10;4.53;;;;;;;2.46;100.00;101367.78;5056131;28;20266;-74
2023/01/28 04:26:08;;;;;;;7.40;4.10;;;;;;;2.42;100.00;101363.31;5055234;28;20223;-75
2023/01/28 04:28:34;;;;;;;6.68;4.47;;;;;;;2.50;100.00;101367.78;5054398;28;20242;-75
2023/01/28 04:31:01;;;;;;;6.20;4.20;;;;;;;2.50;100.00;101377.53;5055310;28;20215;-75
2023/01/28 04:33:28;;;;;;;6.60;4.57;;;;;;;2.54;100.00;101368.69;5055430;28;20207;-75
2023/01/28 04:35:54;;;;;;;8.85;3.65;;;;;;;2.55;100.00;101370.47;5065203;28;20658;-75
2023/01/28 04:38:21;;;;;;;6.28;3.90;;;;;;;2.48;100.00;101366.91;5061973;28;20660;-75
2023/01/28 04:40:51;;;;;;;3.88;3.25;;;;;;;2.52;100.00;101362.50;5060250;28;20294;-75
2023/01/28 04:43:18;;;;;;;5.65;3.95;;;;;;;2.56;100.00;101366.06;5060440;28;20203;-75
2023/01/28 04:45:45;;;;;;;6.95;4.32;;;;;;;2.56;100.00;101363.41;5060082;28;20224;-76
2023/01/28 04:48:12;;;;;;;6.00;4.70;;;;;;;2.63;100.00;101365.19;5054903;28;20222;-76
2023/01/28 04:50:38;;;;;;;4.75;3.80;;;;;;;2.64;100.00;101361.63;5055016;28;20638;-75
2023/01/28 04:53:05;;;;;;;6.65;4.50;;;;;;;2.46;100.00;101366.00;5055490;28;20210;-75
2023/01/28 04:55:31;;;;;;;6.60;4.07;;;;;;;2.49;100.00;101366.03;5054831;28;20231;-75
2023/01/28 04:57:59;;;;;;;4.82;3.92;;;;;;;2.46;100.00;101359.78;5053590;28;20744;-74
2023/01/28 05:00:26;;;;;;;6.70;3.97;;;;;;;2.55;100.00;101364.25;5053996;28;20207;-75
2023/01/28 05:02:52;;;;;;;5.43;3.70;;;;;;;2.57;100.00;101366.03;5054068;28;20249;-76
2023/01/28 05:05:19;;;;;;;6.95;3.65;;;;;;;2.63;100.00;101362.53;5054530;28;20219;-75
2023/01/28 05:07:51;;;;;;;5.53;3.78;;;;;;;2.61;100.00;101359.84;5054549;28;20227;-76
2023/01/28 05:10:18;;;;;;;6.00;3.75;;;;;;;2.50;100.00;101369.56;5054218;28;20215;-75
2023/01/28 05:12:44;;;;;;;5.47;3.97;;;;;;;2.54;100.00;101368.69;5055211;28;20311;-75
2023/01/28 05:15:13;;;;;;;4.50;3.90;;;;;;;2.49;100.00;101357.16;5061980;28;20709;-75
2023/01/28 05:17:39;;;;;;;4.50;3.80;;;;;;;2.50;100.00;101358.94;5061075;28;20204;-75
2023/01/28 05:20:07;;;;;;;6.50;4.50;;;;;;;2.49;100.00;101368.69;5063199;28;20209;-76
2023/01/28 05:22:33;;;;;;;5.78;4.35;;;;;;;2.52;100.00;101359.81;5066290;28;20317;-76
2023/01/28 05:25:02;;;;;;;6.18;3.95;;;;;;;2.44;100.00;101366.88;5066632;28;20296;-74
2023/01/28 05:27:29;;;;;;;5.50;3.92;;;;;;;2.44;100.00;101369.53;5069127;28;20230;-75
2023/01/28 05:29:55;;;;;;;3.95;3.25;;;;;;;2.41;100.00;101374.84;5071445;28;20203;-74
2023/01/28 05:32:23;;;;;;;5.88;3.75;;;;;;;2.46;100.00;101370.44;5072113;28;20209;-75
2023/01/28 05:34:50;;;;;;;6.10;3.88;;;;;;;2.39;100.00;101374.84;5070945;28;20213;-74
2023/01/28 05:37:16;;;;;;;5.88;3.72;;;;;;;2.45;100.00;101379.31;5072141;28;20198;-75
2023/01/28 05:39:45;;;;;;;4.95;4.43;;;;;;;2.38;100.00;101369.53;5069653;28;20210;-75
2023/01/28 05:42:14;;;;;;;7.32;4.35;;;;;;;2.52;100.00;101383.75;5072343;28;20235;-77
2023/01/28 05:44:40;;;;;;;4.90;4.03;;;;;;;2.48;100.00;101380.19;5071728;28;20237;-75
2023/01/28 05:47:07;;;;;;;5.25;3.42;;;;;;;2.48;100.00;101392.59;5072078;28;20267;-75
2023/01/28 05:49:35;;;;;;;6.03;4.00;;;;;;;2.54;100.00;101392.63;5072124;28;20207;-74
2023/01/28 05:52:01;;;;;;;8.30;3.50;;;;;;;2.50;100.00;101396.16;5073297;28;20254;-75
2023/01/28 05:54:28;;;;;;;4.97;3.60;;;;;;;2.46;100.00;101403.22;5062973;28;20195;-76
2023/01/28 05:56:55;;;;;;;5.90;3.88;;;;;;;2.45;100.00;101406.78;5056596;28;20211;-76
2023/01/28 05:59:21;;;;;;;5.68;4.00;;;;;;;2.44;100.00;101402.38;5055240;28;20208;-75
2023/01/28 06:01:48;;;;;;;4.95;3.40;;;;;;;2.49;100.00;101410.34;5055200;28;20294;-76
2023/01/28 06:04:17;;;;;;;4.93;3.80;;;;;;;2.56;100.00;101412.16;5055361;28;20209;-75
2023/01/28 06:06:45;;;;;;;7.07;3.70;;;;;;;2.49;100.00;101413.91;5054626;28;20624;-75
2023/01/28 06:09:11;;;;;;;4.03;3.45;;;;;;;2.47;100.00;101412.13;5054527;28;20669;-75
2023/01/28 06:11:38;;;;;;;5.40;3.65;;;;;;;2.48;100.00;101422.72;5055401;28;20239;-76
2023/01/28 06:14:05;;;;;;;8.43;3.60;;;;;;;2.47;100.00;101413.00;5058187;28;20581;-74
2023/01/28 06:16:31;;;;;;;4.70;3.53;;;;;;;2.46;100.00;101412.97;5058271;28;20227;-75
2023/01/28 06:18:58;;;;;;;8.60;4.13;;;;;;;2.47;100.00;101420.09;5056988;28;20203;-75
2023/01/28 06:21:24;;;;;;;4.38;3.50;;;;;;;2.43;100.00;101418.28;5057931;28;20234;-75
2023/01/28 06:23:52;;;;;;;4.38;3.83;;;;;;;2.49;100.00;101427.19;5057706;28;20682;-75
2023/01/28 06:26:19;;;;;;;4.82;3.55;;;;;;;2.48;100.00;101424.50;5057709;28;20315;-75
2023/01/28 06:28:45;;;;;;;5.93;4.00;;;;;;;2.47;100.00;101423.63;5057346;28;20199;-76
2023/01/28 06:31:12;;;;;;;5.15;3.35;;;;;;;2.45;100.00;101433.38;5057515;28;20320;-74
2023/01/28 06:33:39;;;;;;;5.13;3.50;;;;;;;2.50;100.00;101436.06;5062750;28;20217;-75
2023/01/28 06:36:06;;;;;;;5.30;3.88;;;;;;;2.51;100.00;101429.88;5068391;28;20223;-74
2023/01/28 06:38:33;;;;;;;4.97;4.10;;;;;;;2.43;100.00;101439.56;5059497;28;20222;-73
2023/01/28 06:41:01;;;;;;;5.32;3.72;;;;;;;2.53;100.00;101440.50;5060927;28;20249;-75
2023/01/28 06:43:29;;;;;;;6.55;4.47;;;;;;;2.47;100.00;101444.03;5059547;28;20328;-74
2023/01/28 06:45:56;;;;;;;5.03;3.78;;;;;;;2.50;100.00;101447.56;5063224;28;20297;-75
2023/01/28 06:48:23;;;;;;;5.13;4.05;;;;;;;2.55;100.00;101449.38;5063413;28;20204;-75
2023/01/28 06:50:49;;;;;;;5.00;3.50;;;;;;;2.53;100.00;101444.03;5061722;28;20207;-76
2023/01/28 06:53:17;;;;;;;5.35;3.72;;;;;;;2.55;100.00;101442.28;5060213;28;20203;-74
2023/01/28 06:55:44;;;;;;;4.95;3.88;;;;;;;2.58;100.00;101444.06;5058028;28;20226;-74
2023/01/28 06:58:12;;;;;;;5.60;4.10;;;;;;;2.52;100.00;101452.91;5058774;28;20210;-74
2023/01/28 07:00:38;;;;;;;6.22;3.70;;;;;;;2.60;100.00;101445.84;5058107;28;20207;-75
2023/01/28 07:03:05;;;;;;;6.95;3.78;;;;;;;2.57;100.00;101448.47;5057530;28;20203;-75
2023/01/28 07:05:32;;;;;;;4.70;3.80;;;;;;;2.62;100.00;101456.47;5057281;28;20259;-75
2023/01/28 07:07:59;;;;;;;4.70;3.83;;;;;;;2.59;100.00;101462.69;5057343;28;20282;-75
2023/01/28 07:10:25;;;;;;;6.45;4.28;;;;;;;2.54;100.00;101453.81;5061140;28;20207;-75
2023/01/28 07:12:52;;;;;;;5.97;4.00;;;;;;;2.50;100.00;101444.03;5063104;28;20207;-75
2023/01/28 07:15:20;;;;;;;4.32;3.92;;;;;;;2.54;100.00;101459.13;5066239;28;20220;-74
2023/01/28 07:17:46;;;;;;;4.78;3.35;;;;;;;2.53;100.00;101454.66;5070138;28;20222;-75
2023/01/28 07:20:15;;;;;;;7.00;3.97;;;;;;;2.53;100.00;101462.66;5073087;28;20268;-75
2023/01/28 07:22:43;;;;;;;8.02;3.95;;;;;;;2.57;100.00;101464.44;5072314;28;20256;-75
2023/01/28 07:25:10;;;;;;;5.68;3.97;;;;;;;2.54;100.00;101464.44;5074997;28;20228;-75
2023/01/28 07:27:37;;;;;;;4.40;3.50;;;;;;;2.54;100.00;101468.88;5074496;28;20220;-76
2023/01/28 07:30:04;;;;;;;6.65;4.70;;;;;;;2.53;100.00;101462.66;5074186;28;20211;-74
2023/01/28 07:32:32;;;;;;;4.22;3.53;;;;;;;2.63;100.00;101477.78;5074192;28;20199;-74
2023/01/28 07:34:59;;;;;;;5.10;4.45;;;;;;;2.64;100.00;101476.88;5071143;28;20223;-75
2023/01/28 07:37:25;;;;;;;4.10;2.70;;;;;;;2.64;100.00;101474.22;5071606;28;20211;-76
2023/01/28 07:39:52;;;;;;;6.03;3.67;;;;;;;2.58;100.00;101478.63;5071560;28;20246;-75
2023/01/28 07:42:18;;;;;;;3.80;3.20;;;;;;;2.53;100.00;101475.94;5072210;28;20207;-77
2023/01/28 07:44:45;;;;;;;4.40;3.45;;;;;;;2.59;100.00;101480.41;5073359;28;20292;-75
2023/01/28 07:47:11;;;;;;;5.15;3.63;;;;;;;2.71;100.00;101483.13;5071234;28;20219;-75
2023/01/28 07:49:39;;;;;;;6.13;3.30;;;;;;;2.68;100.00;101480.47;5059382;28;20209;-76
2023/01/28 07:52:06;;;;;;;4.40;3.50;;;;;;;2.65;100.00;101486.66;5064219;28;20203;-75
2023/01/28 07:54:33;;;;;;;4.35;3.55;;;;;;;2.57;100.00;101490.16;5058580;28;20670;-75
2023/01/28 07:57:00;;;;;;;9.35;7.03;;;;;;;2.56;100.00;101488.41;5070731;22;20217;-82
2023/01/28 07:59:26;;;;;;;7.35;4.68;;;;;;;2.56;100.00;101489.28;5045306;28;20205;-81
2023/01/28 08:01:53;;;;;;;4.72;3.45;;;;;;;2.58;100.00;101491.91;5047711;28;20236;-84
2023/01/28 08:04:21;;;;;;;7.97;4.75;;;;;;;2.60;100.00;101488.41;5047582;28;20196;-82
2023/01/28 08:06:51;;;;;;;5.47;3.75;;;;;;;2.56;100.00;101489.28;5048325;28;20252;-78
2023/01/28 08:09:17;;;;;;;4.03;3.00;;;;;;;2.61;100.00;101494.63;5031939;28;20235;-81
2023/01/28 08:11:44;;;;;;;4.60;3.63;;;;;;;2.62;100.00;101491.06;5034503;28;20193;-80
2023/01/28 08:14:11;;;;;;;4.78;3.50;;;;;;;2.76;100.00;101497.34;5046296;28;20228;-76
2023/01/28 08:16:38;;;;;;;4.25;3.55;;;;;;;2.75;100.00;101500.00;5057520;28;20228;-77
2023/01/28 08:19:04;;;;;;;7.55;3.80;;;;;;;2.77;100.00;101508.88;5057420;28;20238;-80
2023/01/28 08:21:31;;;;;;;4.03;2.85;;;;;;;2.86;100.00;101500.94;5057206;28;20276;-79
2023/01/28 08:23:59;;;;;;;9.82;6.00;;;;;;;3.02;100.00;101505.41;5056466;28;20193;-80
2023/01/28 08:26:25;;;;;;;4.85;3.85;;;;;;;2.97;100.00;101504.53;5056874;28;20203;-81
2023/01/28 08:28:52;;;;;;;6.15;4.13;;;;;;;2.84;100.00;101508.00;5056197;28;20185;-77
2023/01/28 08:31:19;;;;;;;5.30;3.58;;;;;;;2.87;100.00;101503.59;5055542;28;20244;-80
2023/01/28 08:33:45;;;;;;;3.88;3.33;;;;;;;2.96;100.00;101507.16;5057111;28;20219;-79
2023/01/28 08:36:12;;;;;;;5.05;3.38;;;;;;;3.00;100.00;101509.84;5054729;28;20207;-81
2023/01/28 08:38:39;;;;;;;5.45;3.17;;;;;;;2.90;100.00;101513.38;5052334;28;20199;-79
2023/01/28 08:41:06;;;;;;;5.03;3.10;;;;;;;2.93;100.00;101516.03;5046261;28;20200;-77
2023/01/28 08:43:33;;;;;;;5.40;3.75;;;;;;;3.02;100.00;101507.19;5049516;28;20280;-77
2023/01/28 08:46:00;;;;;;;8.82;4.60;;;;;;;3.07;100.00;101510.75;5040672;28;20237;-70
2023/01/28 08:48:26;;;;;;;26.23;17.83;;;;;;;3.05;100.00;101510.78;5035411;28;20223;-70
2023/01/28 08:50:54;;;;;;;17.55;13.02;;;;;;;3.21;100.00;101514.38;5036451;28;20208;-81
2023/01/28 08:53:21;;;;;;;12.50;6.18;;;;;;;3.25;100.00;101509.91;5046643;28;20221;-79
2023/01/28 08:55:47;;;;;;;5.03;3.60;;;;;;;3.29;100.00;101517.03;5050935;28;20246;-80
2023/01/28 08:58:17;;;;;;;7.97;4.57;;;;;;;3.05;100.00;101521.41;5052024;28;20247;-80
2023/01/28 09:00:45;;;;;;;5.88;3.90;;;;;;;3.06;100.00;101527.63;5053405;28;20657;-80
2023/01/28 09:03:12;;;;;;;5.15;3.97;;;;;;;2.98;100.00;101527.56;5053191;28;20205;-78
2023/01/28 09:05:39;;;;;;;7.53;3.58;;;;;;;2.94;100.00;101528.47;5048925;28;20297;-80
2023/01/28 09:08:07;;;;;;;4.70;3.25;;;;;;;2.97;100.00;101520.50;5048609;28;20259;-82
2023/01/28 09:10:36;;;;;;;3.90;3.35;;;;;;;3.03;100.00;101524.94;5048190;28;20238;-79
2023/01/28 09:13:05;;;;;;;5.18;4.00;;;;;;;2.92;100.00;101522.25;5054282;28;20187;-79
2023/01/28 09:15:39;;;;;;;4.32;3.42;;;;;;;2.88;100.00;101533.75;5050543;28;20228;-80
2023/01/28 09:18:06;;;;;;;4.55;3.78;;;;;;;2.96;100.00;101529.34;5046294;28;20208;-79
2023/01/28 09:20:33;;;;;;;4.90;4.05;;;;;;;2.85;100.00;101541.72;5043932;28;20200;-79
2023/01/28 09:23:00;;;;;;;5.88;3.53;;;;;;;3.05;100.00;101539.13;5042495;28;20207;-79
2023/01/28 09:25:27;;;;;;;5.40;3.75;;;;;;;3.04;100.00;101551.56;5045542;28;20252;-81
2023/01/28 09:27:54;;;;;;;5.68;3.42;;;;;;;2.95;100.00;101543.53;5050404;28;20246;-81
2023/01/28 09:30:21;;;;;;;5.70;3.85;;;;;;;3.01;100.00;101543.56;5052073;28;20240;-83
2023/01/28 09:32:51;;;;;;;4.72;3.22;;;;;;;3.08;100.00;101544.50;5050386;28;20208;-78
2023/01/28 09:35:18;;;;;;;4.00;3.40;;;;;;;3.04;100.00;101548.91;5055067;28;20234;-77
2023/01/28 09:37:45;;;;;;;5.43;2.97;;;;;;;3.13;100.00;101551.59;5052492;28;20264;-79
2023/01/28 09:40:16;;;;;;;6.00;4.10;;;;;;;3.08;100.00;101548.03;5051039;28;20287;-78
2023/01/28 09:43:08;;;;;;;8.23;4.30;;;;;;;3.18;100.00;101553.38;5050601;28;20267;-78
2023/01/28 09:45:40;;;;;;;5.80;3.95;;;;;;;3.17;100.00;101549.84;5045885;28;20303;-79
2023/01/28 09:48:14;;;;;;;4.90;3.47;;;;;;;3.26;100.00;101538.34;5049846;28;20243;-79
2023/01/28 09:50:43;;;;;;;4.75;3.25;;;;;;;3.20;100.00;101549.84;5054309;28;20232;-78
2023/01/28 09:53:13;;;;;;;5.45;3.28;;;;;;;3.18;100.00;101561.38;5056581;28;20215;-80
2023/01/28 09:55:45;;;;;;;4.68;3.50;;;;;;;3.25;100.00;101556.06;5056267;28;20216;-80
2023/01/28 09:58:14;;;;;;;5.85;3.90;;;;;;;3.37;100.00;101557.91;5053678;28;20181;-77
2023/01/28 10:00:47;;;;;;;5.18;3.30;;;;;;;3.23;100.00;101562.28;5052992;28;20223;-78
2023/01/28 10:03:33;;;;;;;5.80;4.38;;;;;;;3.25;100.00;101569.38;5049384;28;20243;-80
2023/01/28 10:06:13;;;;;;;4.38;3.25;;;;;;;3.39;100.00;101571.19;5053436;28;20240;-77
2023/01/28 10:09:12;;;;;;;63.08;37.10;;;;;;;3.45;100.00;101574.78;5046121;28;20230;-68
2023/01/28 10:11:52;;;;;;;34.33;18.85;;;;;;;3.61;100.00;101574.81;5046508;28;20188;-79
2023/01/28 10:14:28;;;;;;;8.55;5.85;;;;;;;3.71;100.00;101571.28;5051929;28;20201;-80
2023/01/28 10:17:02;;;;;;;5.32;3.88;;;;;;;3.58;100.00;101574.81;5051159;28;20220;-81
2023/01/28 10:19:35;;;;;;;4.63;3.80;;;;;;;3.43;100.00;101581.88;5050483;28;20231;-82
2023/01/28 10:22:05;;;;;;;4.50;4.07;;;;;;;3.43;100.00;101579.19;5052611;28;20207;-77
2023/01/28 10:24:35;;;;;;;5.30;4.05;;;;;;;3.34;100.00;101574.72;5051105;28;20253;-79
2023/01/28 10:27:03;;;;;;;6.15;4.15;;;;;;;3.22;100.00;101584.47;5052002;28;20236;-78
2023/01/28 10:29:34;;;;;;;6.07;4.15;;;;;;;3.20;100.00;101581.78;5057785;28;20196;-77
2023/01/28 10:32:13;;;;;;;5.22;3.67;;;;;;;3.13;100.00;101580.00;5058805;28;20185;-79
2023/01/28 10:34:41;;;;;;;7.50;4.05;;;;;;;3.38;100.00;101583.63;5059023;28;20258;-77
2023/01/28 10:37:12;;;;;;;5.70;4.13;;;;;;;3.39;100.00;101582.72;5059536;28;20223;-77
2023/01/28 10:39:39;;;;;;;4.28;3.60;;;;;;;3.45;100.00;101592.53;5059422;28;20196;-77
2023/01/28 10:42:17;;;;;;;5.43;3.72;;;;;;;3.41;100.00;101585.41;5059746;28;20251;-78
2023/01/28 10:44:45;;;;;;;5.32;3.53;;;;;;;3.40;100.00;101579.19;5059933;28;20227;-77
2023/01/28 10:47:16;;;;;;;7.72;4.90;;;;;;;3.51;100.00;101582.78;5059035;28;20235;-79
2023/01/28 10:49:50;;;;;;;6.28;4.15;;;;;;;3.42;100.00;101582.75;5059262;28;20196;-78
2023/01/28 10:52:17;;;;;;;5.05;4.10;;;;;;;3.46;100.00;101581.88;5059467;28;20192;-78
2023/01/28 10:54:44;;;;;;;6.57;4.82;;;;;;;3.27;100.00;101575.59;5059525;28;20216;-78
2023/01/28 10:57:16;;;;;;;5.65;3.83;;;;;;;3.32;100.00;101575.63;5059130;28;20246;-79
2023/01/28 10:59:43;;;;;;;6.88;3.80;;;;;;;3.48;100.00;101580.13;5059031;28;20192;-78
2023/01/28 11:02:26;;;;;;;4.63;3.58;;;;;;;3.50;100.00;101586.31;5059635;28;20211;-78
2023/01/28 11:05:07;;;;;;;5.50;3.72;;;;;;;3.64;100.00;101588.13;5058386;28;20208;-80
2023/01/28 11:07:34;;;;;;;5.47;3.50;;;;;;;3.49;100.00;101586.34;5050266;28;20261;-79
2023/01/28 11:10:01;;;;;;;4.22;3.60;;;;;;;3.50;100.00;101582.78;5048331;28;20205;-80
2023/01/28 11:12:30;;;;;;;7.88;3.72;;;;;;;3.54;100.00;101576.56;5049111;28;20210;-78
2023/01/28 11:14:58;;;;;;;7.43;3.78;;;;;;;3.43;100.00;101580.97;5049997;28;20212;-78
2023/01/28 11:17:28;;;;;;;5.40;3.75;;;;;;;3.48;100.00;101574.81;5047512;28;20210;-78
2023/01/28 11:19:56;;;;;;;4.38;3.97;;;;;;;3.47;100.00;101585.44;5051838;28;20259;-80
2023/01/28 11:22:31;;;;;;;4.80;3.40;;;;;;;3.55;100.00;101573.91;5051101;28;20271;-80
2023/01/28 11:24:58;;;;;;;5.07;3.60;;;;;;;3.61;100.00;101578.34;5036326;28;20218;-77
2023/01/28 11:27:28;;;;;;;5.88;4.10;;;;;;;3.47;100.00;101586.31;5037386;28;20192;-77
2023/01/28 11:30:00;;;;;;;8.10;3.80;;;;;;;3.38;100.00;101583.63;5036621;28;20211;-78
2023/01/28 11:32:28;;;;;;;4.22;3.13;;;;;;;3.54;100.00;101584.56;5034247;28;20216;-79
2023/01/28 11:34:58;;;;;;;7.55;3.33;;;;;;;3.40;100.00;101573.00;5032691;28;20266;-80
2023/01/28 11:37:28;;;;;;;5.25;3.65;;;;;;;3.31;100.00;101581.84;5033758;28;20196;-80
2023/01/28 11:40:02;;;;;;;5.10;3.28;;;;;;;3.23;100.00;101587.13;5033699;28;20231;-81
2023/01/28 11:42:30;;;;;;;5.65;3.50;;;;;;;3.36;100.00;101582.72;5031303;28;20259;-79
2023/01/28 11:44:57;;;;;;;4.15;3.30;;;;;;;3.37;100.00;101572.97;5030745;28;20225;-80
2023/01/28 11:47:40;;;;;;;3.83;3.13;;;;;;;3.31;100.00;101572.06;5036055;28;20211;-79
2023/01/28 11:50:26;;;;;;;4.15;2.95;;;;;;;3.38;100.00;101570.31;5038425;28;20169;-78
2023/01/28 11:53:08;;;;;;;3.10;2.78;;;;;;;3.37;100.00;101572.97;5038028;28;20211;-77
2023/01/28 11:55:49;;;;;;;4.65;3.30;;;;;;;3.40;100.00;101557.91;5038254;28;20221;-78
2023/01/28 11:58:26;;;;;;;4.18;3.25;;;;;;;3.53;100.00;101554.38;5037574;28;20215;-79
2023/01/28 12:01:03;;;;;;;4.30;3.40;;;;;;;3.28;100.00;101563.19;5036979;28;20190;-81
2023/01/28 12:03:42;;;;;;;4.03;3.25;;;;;;;3.29;100.00;101554.31;5037421;28;20201;-79
2023/01/28 12:06:28;;;;;;;4.88;3.42;;;;;;;3.28;100.00;101557.88;5037716;28;20227;-79
2023/01/28 12:09:08;;;;;;;3.17;2.80;;;;;;;3.23;100.00;101546.28;5037266;28;20231;-78
2023/01/28 12:14:40;;;;;;;7.65;3.97;;;;;;;3.27;100.00;101556.06;5034147;28;20196;-81